createdAt,value
2023-08-29T00:02:31.938Z,94225.78
2023-08-29T00:05:15.218Z,94225.78
2023-08-29T00:07:59.905Z,94227.47
2023-08-29T00:10:43.087Z,94221.72
2023-08-29T00:13:26.244Z,94218.31
2023-08-29T00:16:09.514Z,94221.56
2023-08-29T00:18:52.703Z,94222.19
2023-08-29T00:21:35.790Z,94222.97
2023-08-29T00:24:20.383Z,94220.94
2023-08-29T00:27:04.130Z,94218.63
2023-08-29T00:29:47.602Z,94226.84
2023-08-29T00:32:30.794Z,94216.88
2023-08-29T00:35:13.953Z,94235.25
2023-08-29T00:37:57.023Z,94234.47
2023-08-29T00:40:41.748Z,94222.63
2023-08-29T00:43:24.859Z,94210.97
2023-08-29T00:46:09.101Z,94210.97
2023-08-29T00:48:52.957Z,94209.53
2023-08-29T00:51:36.176Z,94212.34
2023-08-29T00:54:20.558Z,94215.09
2023-08-29T00:57:05.369Z,94216.19
2023-08-29T00:59:48.587Z,94209.97
2023-08-29T01:02:31.767Z,94214.94
2023-08-29T01:05:14.883Z,94210.25
2023-08-29T01:08:01.230Z,94208.88
2023-08-29T01:10:54.284Z,94204.34
2023-08-29T01:13:46.433Z,94200.63
2023-08-29T01:16:36.840Z,94201.84
2023-08-29T01:19:24.570Z,94201.50
2023-08-29T01:22:19.024Z,94195.16
2023-08-29T01:25:11.598Z,94192.34
2023-08-29T01:27:56.578Z,94183.31
2023-08-29T01:30:42.379Z,94177.56
2023-08-29T01:33:25.735Z,94173.19
2023-08-29T01:36:09.202Z,94177.56
2023-08-29T01:38:52.305Z,94180.31
2023-08-29T01:41:35.661Z,94170.03
2023-08-29T01:44:20.170Z,94163.19
2023-08-29T01:47:03.394Z,94171.84
2023-08-29T01:49:46.914Z,94172.81
2023-08-29T01:52:30.091Z,94163.75
2023-08-29T01:55:13.335Z,94155.31
2023-08-29T01:57:56.842Z,94163.09
2023-08-29T02:00:42.263Z,94161.50
2023-08-29T02:03:25.695Z,94164.00
2023-08-29T02:06:08.916Z,94166.31
2023-08-29T02:08:52.063Z,94166.34
2023-08-29T02:11:35.183Z,94167.09
2023-08-29T02:14:18.277Z,94160.28
2023-08-29T02:17:02.849Z,94160.88
2023-08-29T02:19:46.106Z,94164.41
2023-08-29T02:22:29.237Z,94171.38
2023-08-29T02:25:12.254Z,94165.91
2023-08-29T02:27:55.389Z,94170.47
2023-08-29T02:30:38.485Z,94171.22
2023-08-29T02:33:23.025Z,94168.88
2023-08-29T02:36:06.679Z,94162.00
2023-08-29T02:38:49.765Z,94159.03
2023-08-29T02:41:32.990Z,94160.09
2023-08-29T02:44:16.282Z,94166.94
2023-08-29T02:46:59.344Z,94161.66
2023-08-29T02:49:43.825Z,94162.25
2023-08-29T02:52:26.969Z,94152.13
2023-08-29T02:55:11.394Z,94159.03
2023-08-29T02:57:54.525Z,94155.53
2023-08-29T03:00:37.650Z,94156.63
2023-08-29T03:03:21.707Z,94156.50
2023-08-29T03:06:06.639Z,94153.75
2023-08-29T03:08:49.816Z,94152.28
2023-08-29T03:11:33.341Z,94153.41
2023-08-29T03:14:16.710Z,94155.25
2023-08-29T03:16:59.797Z,94153.69
2023-08-29T03:19:42.901Z,94148.56
2023-08-29T03:22:27.437Z,94143.00
2023-08-29T03:25:11.388Z,94144.78
2023-08-29T03:27:54.472Z,94141.38
2023-08-29T03:30:37.568Z,94147.84
2023-08-29T03:33:20.861Z,94143.00
2023-08-29T03:36:04.121Z,94147.97
2023-08-29T03:38:48.723Z,94150.28
2023-08-29T03:41:31.832Z,94152.78
2023-08-29T03:44:15.087Z,94151.09
2023-08-29T03:46:58.257Z,94151.94
2023-08-29T03:49:41.465Z,94145.25
2023-08-29T03:52:24.922Z,94144.34
2023-08-29T03:55:10.336Z,94148.31
2023-08-29T03:57:53.415Z,94139.56
2023-08-29T04:00:36.739Z,94134.56
2023-08-29T04:03:20.138Z,94142.09
2023-08-29T04:06:04.651Z,94137.53
2023-08-29T04:08:47.913Z,94138.09
2023-08-29T04:11:32.400Z,94130.59
2023-08-29T04:14:15.476Z,94126.66
2023-08-29T04:16:58.563Z,94139.84
2023-08-29T04:19:41.758Z,94128.69
2023-08-29T04:22:24.805Z,94134.44
2023-08-29T04:25:08.912Z,94136.69
2023-08-29T04:27:53.355Z,94130.09
2023-08-29T04:30:36.804Z,94135.50
2023-08-29T04:33:20.308Z,94127.31
2023-08-29T04:36:03.423Z,94132.72
2023-08-29T04:38:48.917Z,94129.97
2023-08-29T04:41:32.098Z,94127.22
2023-08-29T04:44:16.754Z,94125.81
2023-08-29T04:46:59.927Z,94130.66
2023-08-29T04:49:43.014Z,94122.94
2023-08-29T04:52:26.066Z,94122.41
2023-08-29T04:55:10.188Z,94124.44
2023-08-29T04:57:55.963Z,94131.75
2023-08-29T05:00:40.813Z,94134.09
2023-08-29T05:03:24.065Z,94128.69
2023-08-29T05:06:07.257Z,94119.69
2023-08-29T05:08:50.337Z,94118.63
2023-08-29T05:11:33.406Z,94112.44
2023-08-29T05:14:16.484Z,94111.19
2023-08-29T05:17:01.120Z,94101.88
2023-08-29T05:19:44.705Z,94111.84
2023-08-29T05:22:27.872Z,94116.03
2023-08-29T05:25:11.155Z,94119.00
2023-08-29T05:27:54.388Z,94109.81
2023-08-29T05:30:37.581Z,94110.69
2023-08-29T05:33:22.041Z,94104.28
2023-08-29T05:36:05.382Z,94108.41
2023-08-29T05:38:48.735Z,94101.63
2023-08-29T05:41:31.843Z,94100.94
2023-08-29T05:44:14.952Z,94098.84
2023-08-29T05:46:58.059Z,94100.69
2023-08-29T05:49:42.682Z,94102.41
2023-08-29T05:52:25.770Z,94109.34
2023-08-29T05:55:09.614Z,94101.22
2023-08-29T05:57:52.687Z,94093.06
2023-08-29T06:00:37.255Z,94106.97
2023-08-29T06:03:22.964Z,94094.34
2023-08-29T06:06:08.551Z,94100.03
2023-08-29T06:08:51.615Z,94104.97
2023-08-29T06:11:34.684Z,94105.41
2023-08-29T06:14:17.841Z,94111.81
2023-08-29T06:17:00.999Z,94115.38
2023-08-29T06:19:44.009Z,94113.16
2023-08-29T06:22:28.515Z,94106.16
2023-08-29T06:25:12.273Z,94100.84
2023-08-29T06:27:55.565Z,94099.53
2023-08-29T06:30:38.961Z,94095.22
2023-08-29T06:33:22.820Z,94108.72
2023-08-29T06:36:06.232Z,94106.31
2023-08-29T06:38:50.717Z,94111.34
2023-08-29T06:41:33.985Z,94110.47
2023-08-29T06:44:17.163Z,94115.41
2023-08-29T06:47:00.358Z,94108.03
2023-08-29T06:49:43.524Z,94101.66
2023-08-29T06:52:28.322Z,94107.97
2023-08-29T06:55:12.921Z,94106.59
2023-08-29T06:57:55.972Z,94101.41
2023-08-29T07:00:39.038Z,94100.84
2023-08-29T07:03:22.253Z,94097.22
2023-08-29T07:06:05.554Z,94083.59
2023-08-29T07:08:49.153Z,94092.94
2023-08-29T07:11:33.998Z,94094.56
2023-08-29T07:14:17.100Z,94095.13
2023-08-29T07:17:08.169Z,94083.63
2023-08-29T07:19:53.871Z,94094.03
2023-08-29T07:22:37.677Z,94095.09
2023-08-29T07:25:23.162Z,94093.63
2023-08-29T07:28:09.017Z,94095.00
2023-08-29T07:30:52.657Z,94092.19
2023-08-29T07:33:35.964Z,94083.38
2023-08-29T07:36:19.034Z,94093.38
2023-08-29T07:39:02.101Z,94089.75
2023-08-29T07:41:45.210Z,94079.47
2023-08-29T07:44:30.817Z,94089.28
2023-08-29T07:47:15.557Z,94096.94
2023-08-29T07:49:59.263Z,94094.59
2023-08-29T07:52:42.502Z,94099.63
2023-08-29T07:55:25.687Z,94086.06
2023-08-29T07:58:09.176Z,94083.22
2023-08-29T08:00:53.766Z,94087.00
2023-08-29T08:03:37.015Z,94086.19
2023-08-29T08:06:20.336Z,94090.81
2023-08-29T08:09:04.621Z,94085.88
2023-08-29T08:11:47.706Z,94085.47
2023-08-29T08:14:30.836Z,94097.34
2023-08-29T08:17:15.515Z,94087.25
2023-08-29T08:19:58.950Z,94078.88
2023-08-29T08:22:43.435Z,94071.78
2023-08-29T08:25:27.207Z,94073.72
2023-08-29T08:28:10.375Z,94076.25
2023-08-29T08:30:53.502Z,94068.88
2023-08-29T08:33:38.040Z,94067.78
2023-08-29T08:36:21.208Z,94058.28
2023-08-29T08:39:05.068Z,94048.06
2023-08-29T08:41:48.220Z,94049.16
2023-08-29T08:44:33.599Z,94042.81
2023-08-29T08:47:16.810Z,94038.44
2023-08-29T08:50:01.538Z,94035.81
2023-08-29T08:52:46.255Z,94033.63
2023-08-29T08:55:31.039Z,94044.47
2023-08-29T08:58:14.665Z,94034.25
2023-08-29T09:00:58.135Z,94031.25
2023-08-29T09:03:41.958Z,94040.63
2023-08-29T09:06:26.537Z,94039.75
2023-08-29T09:09:20.429Z,94039.50
2023-08-29T09:12:03.647Z,94041.19
2023-08-29T09:14:46.760Z,94034.56
2023-08-29T09:17:29.940Z,94034.00
2023-08-29T09:20:13.812Z,94030.97
2023-08-29T09:22:58.725Z,94029.66
2023-08-29T09:25:43.365Z,94025.09
2023-08-29T09:28:28.768Z,94026.56
2023-08-29T09:31:13.151Z,94019.47
2023-08-29T09:33:56.453Z,94031.03
2023-08-29T09:36:39.908Z,94020.09
2023-08-29T09:39:24.478Z,94027.75
2023-08-29T09:42:08.864Z,94026.31
2023-08-29T09:44:52.052Z,94027.31
2023-08-29T09:47:35.498Z,94024.22
2023-08-29T09:50:19.374Z,94028.56
2023-08-29T09:53:03.994Z,94034.41
2023-08-29T09:55:50.793Z,94031.34
2023-08-29T09:58:35.159Z,94028.44
2023-08-29T10:01:19.381Z,94030.25
2023-08-29T10:04:08.234Z,94030.47
2023-08-29T10:06:56.330Z,94021.31
2023-08-29T10:09:39.661Z,94027.66
2023-08-29T10:12:24.749Z,94017.94
2023-08-29T10:15:09.694Z,94024.53
2023-08-29T10:17:57.691Z,94013.53
2023-08-29T10:20:45.070Z,94016.56
2023-08-29T10:23:30.106Z,94015.06
2023-08-29T10:26:14.185Z,94015.25
2023-08-29T10:29:00.180Z,94021.22
2023-08-29T10:31:45.206Z,94020.38
2023-08-29T10:34:30.207Z,94026.03
2023-08-29T10:37:18.901Z,94021.97
2023-08-29T10:40:12.840Z,94017.97
2023-08-29T10:42:58.689Z,94017.66
2023-08-29T10:45:48.803Z,94008.69
2023-08-29T10:48:50.830Z,94011.97
2023-08-29T10:51:33.953Z,94016.03
2023-08-29T10:54:17.095Z,94031.00
2023-08-29T10:57:00.844Z,94018.50
2023-08-29T10:59:44.115Z,94023.34
2023-08-29T11:02:30.634Z,94010.16
2023-08-29T11:05:16.561Z,94012.69
2023-08-29T11:08:21.468Z,94007.50
2023-08-29T11:11:21.266Z,93994.78
2023-08-29T11:14:07.491Z,93988.69
2023-08-29T11:17:13.292Z,93981.75
2023-08-29T11:19:58.831Z,93995.44
2023-08-29T11:22:50.241Z,93991.88
2023-08-29T11:25:33.726Z,93981.06
2023-08-29T11:28:18.433Z,93971.63
2023-08-29T11:31:02.289Z,93968.09
2023-08-29T11:33:45.576Z,93963.00
2023-08-29T11:36:35.136Z,93971.44
2023-08-29T11:39:19.165Z,93966.00
2023-08-29T11:42:25.790Z,93973.31
2023-08-29T11:45:45.319Z,93968.75
2023-08-29T11:48:11.493Z,93968.34
2023-08-29T11:50:56.334Z,93969.19
2023-08-29T11:53:41.031Z,93964.53
2023-08-29T11:56:24.150Z,93962.31
2023-08-29T11:59:07.388Z,93957.84
2023-08-29T12:01:51.227Z,93960.25
2023-08-29T12:04:34.491Z,93952.38
2023-08-29T12:07:18.742Z,93953.09
2023-08-29T12:10:11.682Z,93948.41
2023-08-29T12:12:55.066Z,93956.13
2023-08-29T12:15:43.684Z,93952.31
2023-08-29T12:18:28.506Z,93948.47
2023-08-29T12:21:16.284Z,93943.69
2023-08-29T12:24:11.886Z,93957.59
2023-08-29T12:26:57.200Z,93957.91
2023-08-29T12:29:40.567Z,93954.47
2023-08-29T12:32:27.723Z,93948.94
2023-08-29T12:35:11.488Z,93940.41
2023-08-29T12:37:54.789Z,93950.34
2023-08-29T12:40:39.621Z,93948.97
2023-08-29T12:43:25.289Z,93951.41
2023-08-29T12:46:10.125Z,93955.25
2023-08-29T12:48:53.305Z,93945.94
2023-08-29T12:51:36.826Z,93946.19
2023-08-29T12:54:19.992Z,93939.31
2023-08-29T12:57:03.138Z,93947.81
2023-08-29T12:59:47.664Z,93937.56
2023-08-29T13:02:30.799Z,93937.09
2023-08-29T13:05:14.811Z,93931.16
2023-08-29T13:07:58.355Z,93913.41
2023-08-29T13:10:41.472Z,93915.00
2023-08-29T13:13:24.552Z,93923.72
2023-08-29T13:16:09.148Z,93909.31
2023-08-29T13:18:52.218Z,93903.78
2023-08-29T13:21:35.553Z,93888.31
2023-08-29T13:24:20.710Z,93883.69
2023-08-29T13:27:03.991Z,93879.09
2023-08-29T13:29:47.122Z,93879.94
2023-08-29T13:32:32.122Z,93882.59
2023-08-29T13:35:15.497Z,93874.63
2023-08-29T13:37:58.568Z,93871.44
2023-08-29T13:40:44.671Z,93870.75
2023-08-29T13:43:28.852Z,93869.41
2023-08-29T13:46:12.016Z,93868.69
2023-08-29T13:48:56.544Z,93860.06
2023-08-29T13:51:39.946Z,93855.13
2023-08-29T13:54:23.154Z,93867.13
2023-08-29T13:57:07.363Z,93875.84
2023-08-29T13:59:50.777Z,93873.69
2023-08-29T14:02:34.165Z,93876.22
2023-08-29T14:05:18.964Z,93898.94
2023-08-29T14:08:02.251Z,93900.47
2023-08-29T14:10:45.380Z,93905.56
2023-08-29T14:13:28.571Z,93910.22
2023-08-29T14:16:11.791Z,93921.69
2023-08-29T14:18:54.865Z,93872.72
2023-08-29T14:21:39.411Z,93874.75
2023-08-29T14:24:22.455Z,93854.69
2023-08-29T14:27:05.757Z,93849.13
2023-08-29T14:29:48.836Z,93830.94
2023-08-29T14:32:32.424Z,93835.63
2023-08-29T14:35:15.799Z,93836.38
2023-08-29T14:38:00.779Z,93824.88
2023-08-29T14:40:43.958Z,93817.41
2023-08-29T14:43:27.110Z,93814.25
2023-08-29T14:46:10.617Z,93817.81
2023-08-29T14:48:53.869Z,93819.66
2023-08-29T14:51:36.994Z,93818.66
2023-08-29T14:54:21.506Z,93814.88
2023-08-29T14:57:07.302Z,93817.38
2023-08-29T14:59:51.592Z,93817.94
2023-08-29T15:02:34.767Z,93824.97
2023-08-29T15:05:18.191Z,93829.66
2023-08-29T15:08:01.902Z,93822.34
2023-08-29T15:10:47.482Z,93828.78
2023-08-29T15:13:30.588Z,93819.84
2023-08-29T15:16:13.863Z,93826.56
2023-08-29T15:18:58.636Z,93827.09
2023-08-29T15:21:41.765Z,93815.91
2023-08-29T15:24:25.185Z,93821.34
2023-08-29T15:27:09.732Z,93817.09
2023-08-29T15:29:53.120Z,93811.50
2023-08-29T15:32:36.377Z,93817.88
2023-08-29T15:35:19.730Z,93818.94
2023-08-29T15:38:03.307Z,93821.09
2023-08-29T15:40:49.248Z,93814.06
2023-08-29T15:43:34.082Z,93813.44
2023-08-29T15:46:17.237Z,93821.44
2023-08-29T15:49:00.307Z,93818.16
2023-08-29T15:51:43.476Z,93816.72
2023-08-29T15:54:26.670Z,93815.34
2023-08-29T15:57:09.779Z,93810.88
2023-08-29T15:59:54.381Z,93815.84
2023-08-29T16:02:38.279Z,93822.28
2023-08-29T16:05:21.591Z,93815.69
2023-08-29T16:08:06.028Z,93829.41
2023-08-29T16:10:49.396Z,93817.66
2023-08-29T16:13:32.523Z,93812.22
2023-08-29T16:16:17.232Z,93815.16
2023-08-29T16:19:00.338Z,93810.56
2023-08-29T16:21:43.379Z,93809.06
2023-08-29T16:24:26.463Z,93806.56
2023-08-29T16:27:09.651Z,93809.13
2023-08-29T16:29:55.961Z,93813.88
2023-08-29T16:32:41.513Z,93816.00
2023-08-29T16:35:24.641Z,93824.56
2023-08-29T16:38:07.988Z,93825.22
2023-08-29T16:40:53.836Z,93818.94
2023-08-29T16:43:36.924Z,93820.59
2023-08-29T16:46:20.272Z,93825.38
2023-08-29T16:49:05.428Z,93825.41
2023-08-29T16:51:48.529Z,93839.88
2023-08-29T16:54:31.622Z,93829.22
2023-08-29T16:57:14.745Z,93834.09
2023-08-29T16:59:59.112Z,93835.41
2023-08-29T17:02:43.359Z,93836.41
2023-08-29T17:05:28.369Z,93835.31
2023-08-29T17:08:13.226Z,93835.19
2023-08-29T17:10:56.314Z,93829.19
2023-08-29T17:13:39.520Z,93834.84
2023-08-29T17:16:23.107Z,93837.16
2023-08-29T17:19:06.389Z,93837.38
2023-08-29T17:21:51.383Z,93830.31
2023-08-29T17:24:35.086Z,93834.03
2023-08-29T17:27:18.209Z,93833.34
2023-08-29T17:30:06.424Z,93851.69
2023-08-29T17:32:49.613Z,93842.44
2023-08-29T17:35:32.929Z,93848.72
2023-08-29T17:38:17.674Z,93851.25
2023-08-29T17:41:01.368Z,93857.97
2023-08-29T17:43:44.429Z,93867.00
2023-08-29T17:46:27.646Z,93872.84
2023-08-29T17:49:10.933Z,93878.81
2023-08-29T17:51:54.017Z,93880.06
2023-08-29T17:54:38.501Z,93883.84
2023-08-29T17:57:21.542Z,93882.03
2023-08-29T18:00:06.201Z,93884.88
2023-08-29T18:02:49.385Z,93889.53
2023-08-29T18:05:32.633Z,93887.06
2023-08-29T18:08:15.859Z,93883.84
2023-08-29T18:11:00.420Z,93879.97
2023-08-29T18:13:45.931Z,93864.84
2023-08-29T18:16:29.664Z,93852.06
2023-08-29T18:19:13.691Z,93860.84
2023-08-29T18:21:57.008Z,93861.00
2023-08-29T18:24:40.213Z,93871.13
2023-08-29T18:27:27.197Z,93872.59
2023-08-29T18:30:11.666Z,93866.31
2023-08-29T18:32:54.905Z,93872.69
2023-08-29T18:35:38.468Z,93873.53
2023-08-29T18:38:21.821Z,93881.47
2023-08-29T18:41:05.068Z,93877.47
2023-08-29T18:43:49.897Z,93874.81
2023-08-29T18:46:33.932Z,93880.69
2023-08-29T18:49:17.092Z,93879.59
2023-08-29T18:52:00.638Z,93876.16
2023-08-29T18:54:43.735Z,93877.47
2023-08-29T18:57:26.961Z,93877.81
2023-08-29T19:00:13.142Z,93878.91
2023-08-29T19:02:58.230Z,93884.22
2023-08-29T19:05:41.675Z,93893.84
2023-08-29T19:08:24.956Z,93899.78
2023-08-29T19:11:12.763Z,93888.13
2023-08-29T19:13:56.001Z,93887.22
2023-08-29T19:16:40.560Z,93888.19
2023-08-29T19:19:23.731Z,93892.19
2023-08-29T19:22:06.804Z,93899.50
2023-08-29T19:24:50.054Z,93902.00
2023-08-29T19:27:33.600Z,93906.97
2023-08-29T19:30:16.805Z,93909.31
2023-08-29T19:33:04.600Z,93907.78
2023-08-29T19:35:47.832Z,93909.81
2023-08-29T19:38:30.963Z,93913.41
2023-08-29T19:41:15.179Z,93922.88
2023-08-29T19:43:58.446Z,93922.00
2023-08-29T19:46:41.585Z,93931.16
2023-08-29T19:49:27.533Z,93933.69
2023-08-29T19:52:10.752Z,93935.28
2023-08-29T19:54:53.961Z,93938.03
2023-08-29T19:57:38.496Z,93942.72
2023-08-29T20:00:21.661Z,93945.69
2023-08-29T20:03:05.582Z,93941.38
2023-08-29T20:05:50.733Z,93941.09
2023-08-29T20:08:34.303Z,93941.88
2023-08-29T20:11:17.752Z,93942.66
2023-08-29T20:14:01.400Z,93936.00
2023-08-29T20:16:45.016Z,93928.38
2023-08-29T20:19:28.641Z,93926.50
2023-08-29T20:22:13.438Z,93922.13
2023-08-29T20:24:56.878Z,93917.03
2023-08-29T20:27:40.310Z,93908.94
2023-08-29T20:30:23.958Z,93919.19
2023-08-29T20:33:08.030Z,93915.78
2023-08-29T20:35:51.440Z,93921.41
2023-08-29T20:38:35.920Z,93921.06
2023-08-29T20:41:18.999Z,93921.84
2023-08-29T20:44:02.107Z,93930.81
2023-08-29T20:46:45.330Z,93926.16
2023-08-29T20:49:28.504Z,93925.56
2023-08-29T20:52:12.071Z,93938.88
2023-08-29T20:54:56.988Z,93947.16
2023-08-29T20:57:40.162Z,93958.47
2023-08-29T21:00:23.622Z,93958.13
2023-08-29T21:03:06.919Z,93973.00
2023-08-29T21:05:50.767Z,93972.06
2023-08-29T21:08:33.895Z,93977.63
2023-08-29T21:11:18.387Z,93978.50
2023-08-29T21:14:01.565Z,93983.50
2023-08-29T21:16:44.701Z,93981.78
2023-08-29T21:19:29.794Z,93970.88
2023-08-29T21:22:13.104Z,93970.69
2023-08-29T21:24:56.216Z,93980.63
2023-08-29T21:27:40.991Z,93981.84
2023-08-29T21:30:24.174Z,93980.47
2023-08-29T21:33:08.341Z,93974.13
2023-08-29T21:35:52.393Z,93984.53
2023-08-29T21:38:36.626Z,93995.06
2023-08-29T21:41:19.745Z,93984.66
2023-08-29T21:44:04.538Z,93986.22
2023-08-29T21:46:48.041Z,93982.03
2023-08-29T21:49:31.268Z,93986.75
2023-08-29T21:52:14.631Z,93979.50
2023-08-29T21:54:57.990Z,93988.34
2023-08-29T21:57:41.036Z,93996.97
2023-08-29T22:00:26.028Z,93990.44
2023-08-29T22:03:09.186Z,93984.53
2023-08-29T22:05:53.356Z,93970.75
2023-08-29T22:08:37.041Z,93973.38
2023-08-29T22:11:20.179Z,93979.41
2023-08-29T22:14:03.310Z,93971.31
2023-08-29T22:16:47.759Z,93977.09
2023-08-29T22:19:30.837Z,93972.41
2023-08-29T22:22:13.944Z,93981.34
2023-08-29T22:24:56.996Z,93982.44
2023-08-29T22:27:40.110Z,93985.75
2023-08-29T22:30:23.253Z,93983.94
2023-08-29T22:33:09.363Z,93978.78
2023-08-29T22:35:52.566Z,93976.19
2023-08-29T22:38:35.629Z,93966.91
2023-08-29T22:41:32.462Z,93978.03
2023-08-29T22:44:17.426Z,93993.63
2023-08-29T22:47:00.554Z,93986.53
2023-08-29T22:49:46.165Z,93975.03
2023-08-29T22:52:29.250Z,93990.97
2023-08-29T22:55:14.021Z,94003.81
2023-08-29T22:57:57.142Z,94009.69
2023-08-29T23:00:40.253Z,93995.69
2023-08-29T23:03:23.348Z,94001.31
2023-08-29T23:06:07.923Z,93999.91
2023-08-29T23:08:51.965Z,94014.34
2023-08-29T23:11:35.127Z,94012.81
2023-08-29T23:14:23.481Z,93997.75
2023-08-29T23:17:09.674Z,93990.16
2023-08-29T23:19:52.980Z,93994.59
2023-08-29T23:22:37.513Z,94015.38
2023-08-29T23:25:20.643Z,94030.03
2023-08-29T23:28:03.949Z,94022.75
2023-08-29T23:30:46.971Z,94003.56
2023-08-29T23:33:30.051Z,93983.94
2023-08-29T23:36:13.067Z,94022.41
2023-08-29T23:38:57.554Z,94013.88
2023-08-29T23:41:40.579Z,94008.50
2023-08-29T23:44:23.942Z,93987.41
2023-08-29T23:47:07.142Z,94016.50
2023-08-29T23:49:50.423Z,94051.06
2023-08-29T23:52:33.475Z,94027.91
2023-08-29T23:55:18.180Z,94007.03
2023-08-29T23:58:01.209Z,94003.13
